sensor_id;sensor_type;location;lat;lon;timestamp;pressure;altitude;pressure_sealevel;temperature;humidity
65175;BME280;51761;42.126;24.752;2023-04-25T00:00:57;98876.22;;;13.82;100.00
65175;BME280;51761;42.126;24.752;2023-04-25T00:03:23;98866.88;;;13.85;100.00
65175;BME280;51761;42.126;24.752;2023-04-25T00:05:50;98848.91;;;13.74;100.00
65175;BME280;51761;42.126;24.752;2023-04-25T00:08:17;98868.88;;;13.85;100.00
65175;BME280;51761;42.126;24.752;2023-04-25T00:10:42;98862.94;;;13.83;100.00
65175;BME280;51761;42.126;24.752;2023-04-25T00:13:08;98853.06;;;13.69;100.00
65175;BME280;51761;42.126;24.752;2023-04-25T00:15:34;98852.94;;;13.73;100.00
65175;BME280;51761;42.126;24.752;2023-04-25T00:18:01;98828.25;;;13.59;100.00
65175;BME280;51761;42.126;24.752;2023-04-25T00:20:26;98849.22;;;13.76;100.00
65175;BME280;51761;42.126;24.752;2023-04-25T00:22:52;98823.13;;;13.66;100.00
65175;BME280;51761;42.126;24.752;2023-04-25T00:25:21;98856.09;;;13.84;100.00
65175;BME280;51761;42.126;24.752;2023-04-25T00:27:46;98849.34;;;13.72;100.00
65175;BME280;51761;42.126;24.752;2023-04-25T00:30:12;98845.84;;;13.90;100.00
65175;BME280;51761;42.126;24.752;2023-04-25T00:32:38;98809.75;;;13.70;100.00
65175;BME280;51761;42.126;24.752;2023-04-25T00:35:03;98808.19;;;13.69;100.00
65175;BME280;51761;42.126;24.752;2023-04-25T00:37:29;98812.72;;;13.67;100.00
65175;BME280;51761;42.126;24.752;2023-04-25T00:39:54;98826.44;;;13.74;100.00
65175;BME280;51761;42.126;24.752;2023-04-25T00:42:21;98823.63;;;13.74;100.00
65175;BME280;51761;42.126;24.752;2023-04-25T00:44:47;98808.78;;;13.55;100.00
65175;BME280;51761;42.126;24.752;2023-04-25T00:47:13;98829.50;;;13.58;100.00
65175;BME280;51761;42.126;24.752;2023-04-25T00:49:38;98841.50;;;13.58;100.00
65175;BME280;51761;42.126;24.752;2023-04-25T00:52:04;98831.16;;;13.46;100.00
65175;BME280;51761;42.126;24.752;2023-04-25T00:54:30;98825.13;;;13.57;100.00
65175;BME280;51761;42.126;24.752;2023-04-25T00:56:56;98831.13;;;13.68;100.00
65175;BME280;51761;42.126;24.752;2023-04-25T00:59:22;98822.28;;;13.39;100.00
65175;BME280;51761;42.126;24.752;2023-04-25T01:01:47;98836.66;;;13.50;100.00
65175;BME280;51761;42.126;24.752;2023-04-25T01:04:13;98817.41;;;13.30;100.00
65175;BME280;51761;42.126;24.752;2023-04-25T01:06:40;98812.78;;;13.45;100.00
65175;BME280;51761;42.126;24.752;2023-04-25T01:09:05;98837.50;;;13.68;100.00
65175;BME280;51761;42.126;24.752;2023-04-25T01:11:31;98837.97;;;13.67;100.00
65175;BME280;51761;42.126;24.752;2023-04-25T01:13:57;98841.81;;;13.51;100.00
65175;BME280;51761;42.126;24.752;2023-04-25T01:16:23;98835.66;;;13.35;100.00
65175;BME280;51761;42.126;24.752;2023-04-25T01:18:52;98829.13;;;13.38;100.00
65175;BME280;51761;42.126;24.752;2023-04-25T01:21:17;98846.63;;;13.51;100.00
65175;BME280;51761;42.126;24.752;2023-04-25T01:23:43;98832.88;;;13.44;100.00
65175;BME280;51761;42.126;24.752;2023-04-25T01:26:10;98848.81;;;13.56;100.00
65175;BME280;51761;42.126;24.752;2023-04-25T01:28:37;98841.84;;;13.60;100.00
65175;BME280;51761;42.126;24.752;2023-04-25T01:31:06;98827.34;;;13.62;100.00
65175;BME280;51761;42.126;24.752;2023-04-25T01:33:32;98830.59;;;13.60;100.00
65175;BME280;51761;42.126;24.752;2023-04-25T01:35:58;98820.44;;;13.54;100.00
65175;BME280;51761;42.126;24.752;2023-04-25T01:38:23;98829.81;;;13.60;100.00
65175;BME280;51761;42.126;24.752;2023-04-25T01:40:50;98817.47;;;13.48;100.00
65175;BME280;51761;42.126;24.752;2023-04-25T01:43:16;98835.91;;;13.58;100.00
65175;BME280;51761;42.126;24.752;2023-04-25T01:45:42;98826.06;;;13.54;100.00
65175;BME280;51761;42.126;24.752;2023-04-25T01:48:09;98830.47;;;13.64;100.00
65175;BME280;51761;42.126;24.752;2023-04-25T01:50:35;98809.84;;;13.49;100.00
65175;BME280;51761;42.126;24.752;2023-04-25T01:53:00;98819.81;;;13.50;100.00
65175;BME280;51761;42.126;24.752;2023-04-25T01:55:27;98826.56;;;13.61;100.00
65175;BME280;51761;42.126;24.752;2023-04-25T01:57:53;98818.66;;;13.69;100.00
65175;BME280;51761;42.126;24.752;2023-04-25T02:00:18;98811.75;;;13.61;100.00
65175;BME280;51761;42.126;24.752;2023-04-25T02:02:44;98789.13;;;13.55;100.00
65175;BME280;51761;42.126;24.752;2023-04-25T02:05:09;98811.16;;;13.66;100.00
65175;BME280;51761;42.126;24.752;2023-04-25T02:07:35;98817.22;;;13.73;100.00
65175;BME280;51761;42.126;24.752;2023-04-25T02:10:01;98819.28;;;13.73;100.00
65175;BME280;51761;42.126;24.752;2023-04-25T02:12:27;98811.31;;;13.71;100.00
65175;BME280;51761;42.126;24.752;2023-04-25T02:14:53;98818.16;;;13.70;100.00
65175;BME280;51761;42.126;24.752;2023-04-25T02:17:18;98819.25;;;13.64;100.00
65175;BME280;51761;42.126;24.752;2023-04-25T02:19:44;98815.19;;;13.65;100.00
65175;BME280;51761;42.126;24.752;2023-04-25T02:22:10;98808.94;;;13.61;100.00
65175;BME280;51761;42.126;24.752;2023-04-25T02:24:35;98824.72;;;13.67;100.00
65175;BME280;51761;42.126;24.752;2023-04-25T02:27:01;98823.44;;;13.59;100.00
65175;BME280;51761;42.126;24.752;2023-04-25T02:29:27;98813.16;;;13.56;100.00
65175;BME280;51761;42.126;24.752;2023-04-25T02:31:52;98791.00;;;13.49;100.00
65175;BME280;51761;42.126;24.752;2023-04-25T02:34:18;98817.03;;;13.59;100.00
65175;BME280;51761;42.126;24.752;2023-04-25T02:36:43;98809.28;;;13.63;100.00
65175;BME280;51761;42.126;24.752;2023-04-25T02:39:09;98814.53;;;13.61;100.00
65175;BME280;51761;42.126;24.752;2023-04-25T02:41:35;98808.63;;;13.59;100.00
65175;BME280;51761;42.126;24.752;2023-04-25T02:44:01;98810.78;;;13.55;100.00
65175;BME280;51761;42.126;24.752;2023-04-25T02:46:26;98805.03;;;13.58;100.00
65175;BME280;51761;42.126;24.752;2023-04-25T02:48:51;98804.44;;;13.63;100.00
65175;BME280;51761;42.126;24.752;2023-04-25T02:51:17;98809.84;;;13.58;100.00
65175;BME280;51761;42.126;24.752;2023-04-25T02:53:42;98813.56;;;13.46;100.00
65175;BME280;51761;42.126;24.752;2023-04-25T02:56:08;98805.22;;;13.24;100.00
65175;BME280;51761;42.126;24.752;2023-04-25T02:58:33;98813.22;;;13.35;100.00
65175;BME280;51761;42.126;24.752;2023-04-25T03:00:59;98797.25;;;13.23;100.00
65175;BME280;51761;42.126;24.752;2023-04-25T03:03:25;98824.59;;;13.40;100.00
65175;BME280;51761;42.126;24.752;2023-04-25T03:05:51;98825.06;;;13.39;100.00
65175;BME280;51761;42.126;24.752;2023-04-25T03:08:17;98824.25;;;13.29;100.00
65175;BME280;51761;42.126;24.752;2023-04-25T03:10:44;98827.69;;;13.33;100.00
65175;BME280;51761;42.126;24.752;2023-04-25T03:13:09;98820.00;;;13.25;100.00
65175;BME280;51761;42.126;24.752;2023-04-25T03:15:36;98825.50;;;13.28;100.00
65175;BME280;51761;42.126;24.752;2023-04-25T03:18:02;98827.50;;;13.28;100.00
65175;BME280;51761;42.126;24.752;2023-04-25T03:20:28;98825.50;;;13.28;100.00
65175;BME280;51761;42.126;24.752;2023-04-25T03:22:53;98836.41;;;13.35;100.00
65175;BME280;51761;42.126;24.752;2023-04-25T03:25:19;98831.72;;;13.32;100.00
65175;BME280;51761;42.126;24.752;2023-04-25T03:27:44;98825.69;;;13.34;100.00
65175;BME280;51761;42.126;24.752;2023-04-25T03:30:10;98806.03;;;13.34;100.00
65175;BME280;51761;42.126;24.752;2023-04-25T03:32:36;98815.13;;;13.47;100.00
65175;BME280;51761;42.126;24.752;2023-04-25T03:35:01;98821.97;;;13.46;100.00
65175;BME280;51761;42.126;24.752;2023-04-25T03:37:27;98802.31;;;13.37;100.00
65175;BME280;51761;42.126;24.752;2023-04-25T03:39:52;98775.78;;;13.29;100.00
65175;BME280;51761;42.126;24.752;2023-04-25T03:42:18;98788.78;;;13.44;100.00
65175;BME280;51761;42.126;24.752;2023-04-25T03:44:43;98772.84;;;13.32;100.00
65175;BME280;51761;42.126;24.752;2023-04-25T03:47:09;98788.00;;;13.44;100.00
65175;BME280;51761;42.126;24.752;2023-04-25T03:49:35;98787.97;;;13.35;100.00
65175;BME280;51761;42.126;24.752;2023-04-25T03:52:01;98772.81;;;13.23;100.00
65175;BME280;51761;42.126;24.752;2023-04-25T03:54:27;98794.53;;;13.41;100.00
65175;BME280;51761;42.126;24.752;2023-04-25T03:56:52;98790.50;;;13.42;100.00
65175;BME280;51761;42.126;24.752;2023-04-25T03:59:18;98771.72;;;13.30;100.00
65175;BME280;51761;42.126;24.752;2023-04-25T04:01:43;98761.19;;;13.34;100.00
65175;BME280;51761;42.126;24.752;2023-04-25T04:04:09;98793.03;;;13.58;100.00
65175;BME280;51761;42.126;24.752;2023-04-25T04:06:34;98772.09;;;13.41;100.00
65175;BME280;51761;42.126;24.752;2023-04-25T04:09:01;98776.66;;;13.47;100.00
65175;BME280;51761;42.126;24.752;2023-04-25T04:11:27;98782.91;;;13.51;100.00
65175;BME280;51761;42.126;24.752;2023-04-25T04:13:52;98784.88;;;13.42;100.00
65175;BME280;51761;42.126;24.752;2023-04-25T04:16:18;98764.25;;;13.27;100.00
65175;BME280;51761;42.126;24.752;2023-04-25T04:18:45;98777.84;;;13.37;100.00
65175;BME280;51761;42.126;24.752;2023-04-25T04:21:10;98788.94;;;13.50;100.00
65175;BME280;51761;42.126;24.752;2023-04-25T04:23:36;98793.94;;;13.55;100.00
65175;BME280;51761;42.126;24.752;2023-04-25T04:26:02;98792.56;;;13.59;100.00
65175;BME280;51761;42.126;24.752;2023-04-25T04:28:28;98794.31;;;13.66;100.00
65175;BME280;51761;42.126;24.752;2023-04-25T04:30:54;98799.31;;;13.71;100.00
65175;BME280;51761;42.126;24.752;2023-04-25T04:33:20;98807.13;;;13.76;100.00
65175;BME280;51761;42.126;24.752;2023-04-25T04:35:46;98781.25;;;13.72;100.00
65175;BME280;51761;42.126;24.752;2023-04-25T04:38:13;98804.97;;;13.89;100.00
65175;BME280;51761;42.126;24.752;2023-04-25T04:40:40;98797.38;;;14.07;99.62
65175;BME280;51761;42.126;24.752;2023-04-25T04:43:08;98804.44;;;14.21;98.10
65175;BME280;51761;42.126;24.752;2023-04-25T04:45:35;98796.63;;;14.25;99.96
65175;BME280;51761;42.126;24.752;2023-04-25T04:48:01;98804.13;;;14.19;97.69
65175;BME280;51761;42.126;24.752;2023-04-25T04:50:27;98803.50;;;14.32;96.93
65175;BME280;51761;42.126;24.752;2023-04-25T04:52:53;98813.97;;;14.32;94.50
65175;BME280;51761;42.126;24.752;2023-04-25T04:55:20;98805.22;;;14.39;95.18
65175;BME280;51761;42.126;24.752;2023-04-25T04:57:46;98812.84;;;14.38;94.89
65175;BME280;51761;42.126;24.752;2023-04-25T05:00:11;98816.59;;;14.44;94.99
65175;BME280;51761;42.126;24.752;2023-04-25T05:02:38;98813.34;;;14.37;96.19
65175;BME280;51761;42.126;24.752;2023-04-25T05:05:05;98793.97;;;14.21;96.13
65175;BME280;51761;42.126;24.752;2023-04-25T05:07:31;98811.75;;;14.27;96.79
65175;BME280;51761;42.126;24.752;2023-04-25T05:09:56;98807.50;;;14.14;97.35
65175;BME280;51761;42.126;24.752;2023-04-25T05:12:22;98815.66;;;14.21;97.45
65175;BME280;51761;42.126;24.752;2023-04-25T05:14:47;98812.69;;;14.24;96.79
65175;BME280;51761;42.126;24.752;2023-04-25T05:17:12;98798.75;;;14.12;97.17
65175;BME280;51761;42.126;24.752;2023-04-25T05:19:38;98788.50;;;14.18;96.81
65175;BME280;51761;42.126;24.752;2023-04-25T05:22:04;98815.53;;;14.33;96.14
65175;BME280;51761;42.126;24.752;2023-04-25T05:24:30;98798.50;;;14.36;95.98
65175;BME280;51761;42.126;24.752;2023-04-25T05:26:56;98809.41;;;14.43;96.17
65175;BME280;51761;42.126;24.752;2023-04-25T05:29:22;98813.19;;;14.49;94.88
65175;BME280;51761;42.126;24.752;2023-04-25T05:31:47;98814.75;;;14.50;96.32
65175;BME280;51761;42.126;24.752;2023-04-25T05:34:13;98801.63;;;14.56;95.15
65175;BME280;51761;42.126;24.752;2023-04-25T05:36:39;98801.59;;;14.83;93.31
65175;BME280;51761;42.126;24.752;2023-04-25T05:39:04;98797.34;;;14.88;91.67
65175;BME280;51761;42.126;24.752;2023-04-25T05:41:31;98813.75;;;15.07;91.95
65175;BME280;51761;42.126;24.752;2023-04-25T05:43:56;98811.09;;;15.04;93.87
65175;BME280;51761;42.126;24.752;2023-04-25T05:46:22;98808.56;;;15.06;95.49
65175;BME280;51761;42.126;24.752;2023-04-25T05:48:47;98809.50;;;15.12;95.40
65175;BME280;51761;42.126;24.752;2023-04-25T05:51:13;98803.72;;;15.15;94.01
65175;BME280;51761;42.126;24.752;2023-04-25T05:53:38;98811.53;;;15.62;90.15
65175;BME280;51761;42.126;24.752;2023-04-25T05:56:04;98812.28;;;15.71;87.94
65175;BME280;51761;42.126;24.752;2023-04-25T05:58:29;98804.94;;;15.97;87.37
65175;BME280;51761;42.126;24.752;2023-04-25T06:00:55;98794.81;;;16.14;87.73
65175;BME280;51761;42.126;24.752;2023-04-25T06:03:20;98780.84;;;16.19;86.71
65175;BME280;51761;42.126;24.752;2023-04-25T06:05:46;98798.25;;;16.41;84.92
65175;BME280;51761;42.126;24.752;2023-04-25T06:08:12;98802.94;;;16.59;85.44
65175;BME280;51761;42.126;24.752;2023-04-25T06:10:37;98800.88;;;16.97;82.22
65175;BME280;51761;42.126;24.752;2023-04-25T06:13:04;98789.69;;;17.17;76.45
65175;BME280;51761;42.126;24.752;2023-04-25T06:15:30;98796.59;;;17.45;78.00
65175;BME280;51761;42.126;24.752;2023-04-25T06:17:58;98790.91;;;17.74;78.03
65175;BME280;51761;42.126;24.752;2023-04-25T06:20:24;98793.72;;;17.74;77.17
65175;BME280;51761;42.126;24.752;2023-04-25T06:22:50;98783.69;;;17.73;77.98
65175;BME280;51761;42.126;24.752;2023-04-25T06:25:19;98800.13;;;18.09;77.34
65175;BME280;51761;42.126;24.752;2023-04-25T06:27:45;98791.41;;;18.47;74.25
65175;BME280;51761;42.126;24.752;2023-04-25T06:30:11;98800.81;;;18.84;71.49
65175;BME280;51761;42.126;24.752;2023-04-25T06:32:38;98792.31;;;19.29;67.92
65175;BME280;51761;42.126;24.752;2023-04-25T06:35:04;98766.91;;;19.40;67.40
65175;BME280;51761;42.126;24.752;2023-04-25T06:37:29;98784.91;;;20.10;64.62
65175;BME280;51761;42.126;24.752;2023-04-25T06:39:55;98779.06;;;20.83;62.30
65175;BME280;51761;42.126;24.752;2023-04-25T06:42:21;98785.63;;;21.82;57.97
65175;BME280;51761;42.126;24.752;2023-04-25T06:44:46;98788.47;;;22.66;55.32
65175;BME280;51761;42.126;24.752;2023-04-25T06:47:12;98781.69;;;23.26;56.55
65175;BME280;51761;42.126;24.752;2023-04-25T06:49:37;98795.84;;;23.37;52.78
65175;BME280;51761;42.126;24.752;2023-04-25T06:52:03;98781.72;;;23.55;52.79
65175;BME280;51761;42.126;24.752;2023-04-25T06:54:28;98770.19;;;22.96;53.10
65175;BME280;51761;42.126;24.752;2023-04-25T06:56:55;98774.41;;;23.89;51.14
65175;BME280;51761;42.126;24.752;2023-04-25T06:59:21;98794.69;;;24.10;49.22
65175;BME280;51761;42.126;24.752;2023-04-25T07:01:47;98801.19;;;24.34;47.25
65175;BME280;51761;42.126;24.752;2023-04-25T07:04:12;98799.22;;;24.23;48.26
65175;BME280;51761;42.126;24.752;2023-04-25T07:06:38;98794.19;;;24.59;47.06
65175;BME280;51761;42.126;24.752;2023-04-25T07:09:11;98793.75;;;25.92;44.28
65175;BME280;51761;42.126;24.752;2023-04-25T07:11:37;98793.06;;;26.43;44.55
65175;BME280;51761;42.126;24.752;2023-04-25T07:14:03;98777.94;;;25.72;44.28
65175;BME280;51761;42.126;24.752;2023-04-25T07:16:28;98793.25;;;25.43;47.48
65175;BME280;51761;42.126;24.752;2023-04-25T07:18:54;98771.50;;;24.85;47.46
65175;BME280;51761;42.126;24.752;2023-04-25T07:21:20;98775.72;;;24.36;51.03
65175;BME280;51761;42.126;24.752;2023-04-25T07:23:45;98777.66;;;24.04;49.21
65175;BME280;51761;42.126;24.752;2023-04-25T07:26:11;98787.91;;;23.89;59.09
65175;BME280;51761;42.126;24.752;2023-04-25T07:28:37;98784.53;;;24.80;50.76
65175;BME280;51761;42.126;24.752;2023-04-25T07:31:02;98780.44;;;24.94;46.38
65175;BME280;51761;42.126;24.752;2023-04-25T07:33:28;98756.16;;;24.45;50.59
65175;BME280;51761;42.126;24.752;2023-04-25T07:35:54;98778.47;;;23.40;53.19
65175;BME280;51761;42.126;24.752;2023-04-25T07:38:21;98757.22;;;22.60;54.43
65175;BME280;51761;42.126;24.752;2023-04-25T07:40:48;98777.50;;;22.86;65.57
65175;BME280;51761;42.126;24.752;2023-04-25T07:43:13;98752.34;;;22.45;57.98
65175;BME280;51761;42.126;24.752;2023-04-25T07:45:45;98771.22;;;22.53;64.12
65175;BME280;51761;42.126;24.752;2023-04-25T07:48:11;98765.88;;;22.22;66.69
65175;BME280;51761;42.126;24.752;2023-04-25T07:50:36;98749.50;;;22.45;61.94
65175;BME280;51761;42.126;24.752;2023-04-25T07:53:02;98762.59;;;23.50;53.88
65175;BME280;51761;42.126;24.752;2023-04-25T07:55:27;98753.66;;;24.36;48.17
65175;BME280;51761;42.126;24.752;2023-04-25T07:57:53;98742.84;;;24.29;55.05
65175;BME280;51761;42.126;24.752;2023-04-25T08:00:19;98749.59;;;24.08;50.03
65175;BME280;51761;42.126;24.752;2023-04-25T08:02:44;98758.69;;;23.48;54.79
65175;BME280;51761;42.126;24.752;2023-04-25T08:05:10;98759.38;;;24.36;53.40
65175;BME280;51761;42.126;24.752;2023-04-25T08:07:37;98752.78;;;25.39;50.56
65175;BME280;51761;42.126;24.752;2023-04-25T08:10:05;98742.25;;;25.92;45.94
65175;BME280;51761;42.126;24.752;2023-04-25T08:12:31;98761.22;;;26.07;47.35
65175;BME280;51761;42.126;24.752;2023-04-25T08:14:56;98770.03;;;26.35;43.17
65175;BME280;51761;42.126;24.752;2023-04-25T08:17:22;98762.88;;;26.55;46.03
65175;BME280;51761;42.126;24.752;2023-04-25T08:19:47;98769.69;;;26.13;48.11
65175;BME280;51761;42.126;24.752;2023-04-25T08:22:13;98741.91;;;25.19;45.92
65175;BME280;51761;42.126;24.752;2023-04-25T08:24:38;98768.16;;;24.62;47.78
65175;BME280;51761;42.126;24.752;2023-04-25T08:27:04;98769.84;;;24.52;45.93
65175;BME280;51761;42.126;24.752;2023-04-25T08:29:29;98778.31;;;24.82;43.73
65175;BME280;51761;42.126;24.752;2023-04-25T08:31:55;98770.94;;;24.68;47.55
65175;BME280;51761;42.126;24.752;2023-04-25T08:34:20;98767.78;;;25.08;44.54
65175;BME280;51761;42.126;24.752;2023-04-25T08:36:46;98770.19;;;24.67;48.38
65175;BME280;51761;42.126;24.752;2023-04-25T08:39:11;98770.59;;;24.11;48.84
65175;BME280;51761;42.126;24.752;2023-04-25T08:41:38;98763.91;;;23.44;49.83
65175;BME280;51761;42.126;24.752;2023-04-25T08:44:05;98770.13;;;23.13;49.80
65175;BME280;51761;42.126;24.752;2023-04-25T08:46:30;98760.09;;;22.50;50.45
65175;BME280;51761;42.126;24.752;2023-04-25T08:49:01;98775.91;;;22.34;57.37
65175;BME280;51761;42.126;24.752;2023-04-25T08:51:31;98751.75;;;21.78;55.51
65175;BME280;51761;42.126;24.752;2023-04-25T08:54:10;98780.69;;;21.60;59.89
65175;BME280;51761;42.126;24.752;2023-04-25T08:56:43;98784.28;;;21.00;55.39
65175;BME280;51761;42.126;24.752;2023-04-25T08:59:11;98781.91;;;20.83;62.83
65175;BME280;51761;42.126;24.752;2023-04-25T09:01:36;98762.72;;;20.67;62.63
65175;BME280;51761;42.126;24.752;2023-04-25T09:04:02;98758.25;;;20.38;65.36
65175;BME280;51761;42.126;24.752;2023-04-25T09:06:31;98778.88;;;20.33;63.34
65175;BME280;51761;42.126;24.752;2023-04-25T09:09:07;98790.22;;;20.39;64.23
65175;BME280;51761;42.126;24.752;2023-04-25T09:11:35;98787.13;;;20.37;65.77
65175;BME280;51761;42.126;24.752;2023-04-25T09:14:14;98776.81;;;20.39;67.75
65175;BME280;51761;42.126;24.752;2023-04-25T09:17:04;98781.78;;;20.55;59.03
65175;BME280;51761;42.126;24.752;2023-04-25T09:19:35;98767.06;;;20.46;59.98
65175;BME280;51761;42.126;24.752;2023-04-25T09:22:04;98763.19;;;20.43;60.58
65175;BME280;51761;42.126;24.752;2023-04-25T09:26:58;98774.69;;;20.87;59.83
65175;BME280;51761;42.126;24.752;2023-04-25T09:29:34;98776.28;;;21.04;60.61
65175;BME280;51761;42.126;24.752;2023-04-25T09:32:20;98771.41;;;21.32;60.97
65175;BME280;51761;42.126;24.752;2023-04-25T09:37:26;98747.69;;;22.36;55.53
65175;BME280;51761;42.126;24.752;2023-04-25T09:39:54;98768.00;;;23.19;51.27
65175;BME280;51761;42.126;24.752;2023-04-25T09:42:25;98764.41;;;23.83;48.94
65175;BME280;51761;42.126;24.752;2023-04-25T09:44:55;98754.88;;;23.99;48.42
65175;BME280;51761;42.126;24.752;2023-04-25T09:47:23;98762.41;;;24.20;48.84
65175;BME280;51761;42.126;24.752;2023-04-25T09:49:50;98754.31;;;24.24;46.95
65175;BME280;51761;42.126;24.752;2023-04-25T09:52:17;98753.22;;;23.85;47.50
65175;BME280;51761;42.126;24.752;2023-04-25T09:54:47;98738.22;;;24.26;48.07
65175;BME280;51761;42.126;24.752;2023-04-25T09:57:18;98743.72;;;24.01;49.56
65175;BME280;51761;42.126;24.752;2023-04-25T09:59:49;98715.16;;;23.77;49.72
65175;BME280;51761;42.126;24.752;2023-04-25T10:02:18;98724.59;;;24.38;51.19
65175;BME280;51761;42.126;24.752;2023-04-25T10:04:51;98722.56;;;24.57;48.55
65175;BME280;51761;42.126;24.752;2023-04-25T10:07:19;98714.25;;;24.35;44.99
65175;BME280;51761;42.126;24.752;2023-04-25T10:09:48;98692.28;;;24.30;46.49
65175;BME280;51761;42.126;24.752;2023-04-25T10:12:16;98717.34;;;24.37;45.86
65175;BME280;51761;42.126;24.752;2023-04-25T10:14:42;98704.19;;;24.71;43.14
65175;BME280;51761;42.126;24.752;2023-04-25T10:17:10;98703.88;;;24.74;42.89
65175;BME280;51761;42.126;24.752;2023-04-25T10:19:36;98699.66;;;24.38;43.69
65175;BME280;51761;42.126;24.752;2023-04-25T10:24:45;98674.69;;;23.84;43.43
65175;BME280;51761;42.126;24.752;2023-04-25T10:27:12;98661.00;;;24.01;43.59
65175;BME280;51761;42.126;24.752;2023-04-25T10:29:38;98671.63;;;24.42;42.24
65175;BME280;51761;42.126;24.752;2023-04-25T10:32:04;98665.44;;;24.75;41.76
65175;BME280;51761;42.126;24.752;2023-04-25T10:34:44;98661.56;;;24.91;43.44
65175;BME280;51761;42.126;24.752;2023-04-25T10:37:12;98647.56;;;25.06;42.15
65175;BME280;51761;42.126;24.752;2023-04-25T10:39:41;98636.91;;;24.75;42.65
65175;BME280;51761;42.126;24.752;2023-04-25T10:42:07;98624.38;;;24.78;43.78
65175;BME280;51761;42.126;24.752;2023-04-25T10:44:33;98622.16;;;25.03;42.67
65175;BME280;51761;42.126;24.752;2023-04-25T10:47:01;98612.06;;;24.70;40.43
65175;BME280;51761;42.126;24.752;2023-04-25T10:52:25;98630.94;;;24.36;43.79
65175;BME280;51761;42.126;24.752;2023-04-25T10:54:55;98614.69;;;24.68;40.92
65175;BME280;51761;42.126;24.752;2023-04-25T10:57:47;98615.19;;;24.85;39.87
65175;BME280;51761;42.126;24.752;2023-04-25T11:00:17;98611.25;;;25.20;39.95
65175;BME280;51761;42.126;24.752;2023-04-25T11:05:10;98595.13;;;25.74;37.15
65175;BME280;51761;42.126;24.752;2023-04-25T11:07:50;98601.28;;;26.04;39.83
65175;BME280;51761;42.126;24.752;2023-04-25T11:10:17;98598.88;;;25.82;39.22
65175;BME280;51761;42.126;24.752;2023-04-25T11:12:44;98596.25;;;25.97;38.81
65175;BME280;51761;42.126;24.752;2023-04-25T11:15:10;98578.63;;;25.67;39.11
65175;BME280;51761;42.126;24.752;2023-04-25T11:17:36;98588.75;;;25.29;41.29
65175;BME280;51761;42.126;24.752;2023-04-25T11:20:01;98590.38;;;24.93;42.06
65175;BME280;51761;42.126;24.752;2023-04-25T11:22:31;98580.47;;;25.26;42.60
65175;BME280;51761;42.126;24.752;2023-04-25T11:24:57;98567.06;;;25.34;40.27
65175;BME280;51761;42.126;24.752;2023-04-25T11:27:22;98578.53;;;25.02;40.94
65175;BME280;51761;42.126;24.752;2023-04-25T11:29:50;98587.94;;;25.29;41.34
65175;BME280;51761;42.126;24.752;2023-04-25T11:32:16;98558.19;;;25.24;41.17
65175;BME280;51761;42.126;24.752;2023-04-25T11:34:43;98575.88;;;25.75;42.28
65175;BME280;51761;42.126;24.752;2023-04-25T11:37:10;98565.16;;;25.10;42.34
65175;BME280;51761;42.126;24.752;2023-04-25T11:39:37;98552.38;;;24.54;43.20
65175;BME280;51761;42.126;24.752;2023-04-25T11:42:04;98568.00;;;24.97;46.09
65175;BME280;51761;42.126;24.752;2023-04-25T11:44:30;98549.22;;;24.21;46.36
65175;BME280;51761;42.126;24.752;2023-04-25T11:46:56;98548.06;;;24.11;45.23
65175;BME280;51761;42.126;24.752;2023-04-25T11:49:21;98551.44;;;24.27;43.66
65175;BME280;51761;42.126;24.752;2023-04-25T11:51:48;98557.22;;;24.22;43.23
65175;BME280;51761;42.126;24.752;2023-04-25T11:54:14;98538.94;;;24.30;42.86
65175;BME280;51761;42.126;24.752;2023-04-25T11:56:44;98544.88;;;24.51;42.93
65175;BME280;51761;42.126;24.752;2023-04-25T11:59:11;98532.97;;;24.47;42.75
65175;BME280;51761;42.126;24.752;2023-04-25T12:01:39;98528.69;;;24.40;43.77
65175;BME280;51761;42.126;24.752;2023-04-25T12:06:40;98527.66;;;24.88;43.89
65175;BME280;51761;42.126;24.752;2023-04-25T12:09:11;98514.06;;;24.62;43.00
65175;BME280;51761;42.126;24.752;2023-04-25T12:11:47;98511.69;;;24.79;42.15
65175;BME280;51761;42.126;24.752;2023-04-25T12:14:34;98512.84;;;24.58;42.32
65175;BME280;51761;42.126;24.752;2023-04-25T12:17:02;98514.13;;;24.25;43.02
65175;BME280;51761;42.126;24.752;2023-04-25T12:19:35;98483.00;;;23.72;44.14
65175;BME280;51761;42.126;24.752;2023-04-25T12:22:02;98502.06;;;24.32;44.39
65175;BME280;51761;42.126;24.752;2023-04-25T12:24:33;98492.91;;;24.39;42.82
65175;BME280;51761;42.126;24.752;2023-04-25T12:27:04;98479.91;;;24.38;42.96
65175;BME280;51761;42.126;24.752;2023-04-25T12:29:32;98492.03;;;24.44;42.47
65175;BME280;51761;42.126;24.752;2023-04-25T12:31:58;98503.00;;;24.40;43.08
65175;BME280;51761;42.126;24.752;2023-04-25T12:34:24;98480.78;;;24.02;45.14
65175;BME280;51761;42.126;24.752;2023-04-25T12:36:51;98485.31;;;23.92;45.90
65175;BME280;51761;42.126;24.752;2023-04-25T12:39:21;98505.03;;;24.58;42.59
65175;BME280;51761;42.126;24.752;2023-04-25T12:41:48;98493.94;;;24.99;41.37
65175;BME280;51761;42.126;24.752;2023-04-25T12:44:14;98493.41;;;25.27;41.46
65175;BME280;51761;42.126;24.752;2023-04-25T12:46:40;98486.59;;;25.30;41.16
65175;BME280;51761;42.126;24.752;2023-04-25T12:49:06;98476.81;;;25.38;40.22
65175;BME280;51761;42.126;24.752;2023-04-25T12:51:34;98487.66;;;25.01;40.49
65175;BME280;51761;42.126;24.752;2023-04-25T12:54:00;98480.75;;;24.96;41.13
65175;BME280;51761;42.126;24.752;2023-04-25T12:56:26;98468.84;;;24.79;41.22
65175;BME280;51761;42.126;24.752;2023-04-25T12:58:53;98499.50;;;24.79;44.45